»·PEaware :: N1718G KMRY-KRDD

N1718G :: KMRY-KRDD

FLIGHT INFORMATION

Flight Status: Arrived
Operator: Privately registered:
United States
More flights under this callsign
Pilot: Spencer M. (27733)
Aircraft: Unknown
(EPIC)
More flights by this aircraft type
Origin: KMRY Monterey Peninsula
United States
Destination: KRDD Redding Mun
United States
More flights between these airports :: More routes between these airports
Route: MRY5 MRY SHOEY V27 GETER V25 HOMAN
File this flight plan on PilotEdge
Remarks:
Altitude:
(Current/Filed)
17,000ft
Speed:
(Current/Filed)
280kts
Departed: 24-Aug-20 07:13 PM
Arrived: 24-Aug-20 08:27 PM
Distance/Time
Traveled:
236nm/1:14
Distance/Time
To Go:
Arrived

Flight Plot

Page will automatically refresh every two minutes.

Flight plan parsing failed; only flown route is shown


Map Options




Map Legend


Flown Route
Filed Route
Departure Airport
Arrival Airport
Navaid (VOR, NDB)
Fix

Horizontal Profiles

Position Reports

Time Latitude Longitude Heading Altitude Ground
Speed
24-Aug-20 18:53 36.588113 -121.851669 22 258ft 0kts
24-Aug-20 18:54 36.588113 -121.851669 22 258ft 0kts
24-Aug-20 18:55 36.588113 -121.851669 22 258ft 0kts
24-Aug-20 18:56 36.588113 -121.851669 22 258ft 0kts
24-Aug-20 18:57 36.588113 -121.851669 22 258ft 0kts
24-Aug-20 18:58 36.588113 -121.851669 22 258ft 0kts
24-Aug-20 18:59 36.588113 -121.851669 22 258ft 0kts
24-Aug-20 19:00 36.588113 -121.851669 22 258ft 0kts
24-Aug-20 19:01 36.588113 -121.851669 22 258ft 0kts
24-Aug-20 19:02 36.588113 -121.851669 22 258ft 0kts
24-Aug-20 19:03 36.588113 -121.851669 22 258ft 0kts
24-Aug-20 19:04 36.588113 -121.851669 22 258ft 0kts
24-Aug-20 19:05 36.588113 -121.851669 22 258ft 0kts
24-Aug-20 19:06 36.588162 -121.851646 19 258ft 1kts
24-Aug-20 19:07 36.588951 -121.852703 293 258ft 5kts
24-Aug-20 19:08 36.589797 -121.855752 296 258ft 9kts
24-Aug-20 19:09 36.590007 -121.856081 355 258ft 0kts
24-Aug-20 19:10 36.590007 -121.856081 355 258ft 0kts
24-Aug-20 19:11 36.590073 -121.856075 6 258ft 3kts
24-Aug-20 19:12 36.588239 -121.848092 112 281ft 117kts
24-Aug-20 19:13 36.585365 -121.788282 86 1344ft 232kts
24-Aug-20 19:14 36.632746 -121.756367 343 2595ft 243kts
24-Aug-20 19:15 36.688616 -121.793855 301 3788ft 232kts
24-Aug-20 19:16 36.704061 -121.869970 278 5381ft 228kts
24-Aug-20 19:17 36.716596 -121.949294 276 7392ft 238kts
24-Aug-20 19:18 36.729567 -122.031546 275 9396ft 247kts
24-Aug-20 19:19 36.743029 -122.117021 276 11403ft 257kts
24-Aug-20 19:20 36.796626 -122.180638 322 13440ft 280kts
24-Aug-20 19:21 36.860433 -122.237077 321 15457ft 282kts
24-Aug-20 19:22 36.924512 -122.293890 321 17009ft 297kts
24-Aug-20 19:23 36.996947 -122.358161 321 17039ft 338kts
24-Aug-20 19:24 37.075252 -122.427859 321 17102ft 349kts
24-Aug-20 19:25 37.165596 -122.474674 339 17097ft 355kts
24-Aug-20 19:26 37.258958 -122.514364 339 17098ft 355kts
24-Aug-20 19:27 37.352552 -122.554241 339 17098ft 356kts
24-Aug-20 19:28 37.446035 -122.594176 339 17099ft 356kts
24-Aug-20 19:29 37.539710 -122.634298 339 17097ft 356kts
24-Aug-20 19:30 37.633341 -122.674508 339 17101ft 356kts
24-Aug-20 19:31 37.727098 -122.714880 339 17102ft 356kts
24-Aug-20 19:32 37.820829 -122.755351 339 17062ft 358kts
24-Aug-20 19:33 37.915129 -122.796176 339 16981ft 360kts
24-Aug-20 19:34 38.009829 -122.837285 339 16966ft 360kts
24-Aug-20 19:35 38.105603 -122.872284 350 17006ft 361kts
24-Aug-20 19:36 38.204627 -122.890740 351 17016ft 360kts
24-Aug-20 19:37 38.303586 -122.909035 351 17025ft 360kts
24-Aug-20 19:38 38.402495 -122.927372 351 17026ft 360kts
24-Aug-20 19:39 38.501750 -122.945822 352 16972ft 361kts
24-Aug-20 19:40 38.600859 -122.964298 352 16972ft 360kts
24-Aug-20 19:41 38.699837 -122.979246 13 16974ft 356kts
24-Aug-20 19:42 38.790898 -122.936492 25 16968ft 342kts
24-Aug-20 19:43 38.877321 -122.891119 24 16972ft 333kts
24-Aug-20 19:44 38.961850 -122.846614 24 16964ft 324kts
24-Aug-20 19:45 39.043738 -122.803374 24 16955ft 312kts
24-Aug-20 19:46 39.122411 -122.761657 20 16950ft 301kts
24-Aug-20 19:47 39.198709 -122.721266 20 16943ft 292kts
24-Aug-20 19:48 39.272739 -122.681907 20 16999ft 285kts
24-Aug-20 19:49 39.345681 -122.643029 20 17000ft 283kts
24-Aug-20 19:50 39.417868 -122.604465 20 16996ft 278kts
24-Aug-20 19:51 39.488583 -122.566607 20 16992ft 274kts
24-Aug-20 19:52 39.558866 -122.528895 20 16986ft 274kts
24-Aug-20 19:53 39.629580 -122.490864 20 16978ft 275kts
24-Aug-20 19:54 39.700258 -122.452768 20 16974ft 275kts
24-Aug-20 19:55 39.769880 -122.415162 20 16973ft 268kts
24-Aug-20 19:56 39.836836 -122.378922 20 16972ft 253kts
24-Aug-20 19:57 39.902713 -122.343179 21 16241ft 260kts
24-Aug-20 19:58 39.968821 -122.307231 21 15169ft 255kts
24-Aug-20 19:59 40.033456 -122.272033 21 13977ft 250kts
24-Aug-20 20:00 40.097268 -122.237333 18 12776ft 246kts
24-Aug-20 20:01 40.163300 -122.248525 339 11603ft 261kts
24-Aug-20 20:02 40.234464 -122.281978 339 10422ft 280kts
24-Aug-20 20:03 40.309756 -122.317476 339 10002ft 297kts
24-Aug-20 20:04 40.388617 -122.354744 339 9999ft 304kts
24-Aug-20 20:05 40.468287 -122.392495 339 9999ft 306kts
24-Aug-20 20:06 40.548341 -122.430526 339 9999ft 306kts
24-Aug-20 20:07 40.624397 -122.466765 339 9994ft 272kts
24-Aug-20 20:08 40.693117 -122.499582 339 9999ft 261kts
24-Aug-20 20:09 40.761663 -122.532373 339 9999ft 263kts
24-Aug-20 20:10 40.830127 -122.565191 339 9993ft 253kts
24-Aug-20 20:11 40.888523 -122.593275 339 9989ft 198kts
24-Aug-20 20:12 40.924213 -122.570968 111 9594ft 189kts
24-Aug-20 20:13 40.886662 -122.528961 126 8759ft 177kts
24-Aug-20 20:14 40.861393 -122.473800 121 7652ft 172kts
24-Aug-20 20:15 40.838262 -122.421580 121 6996ft 157kts
24-Aug-20 20:16 40.815161 -122.369462 121 6184ft 166kts
24-Aug-20 20:17 40.792685 -122.318740 121 5497ft 153kts
24-Aug-20 20:18 40.756911 -122.294816 180 4885ft 166kts
24-Aug-20 20:19 40.711348 -122.294176 183 4587ft 167kts
24-Aug-20 20:20 40.666847 -122.294558 181 3754ft 140kts
24-Aug-20 20:21 40.629457 -122.294638 181 2735ft 123kts
24-Aug-20 20:23 40.596009 -122.295539 177 1944ft 108kts
24-Aug-20 20:24 40.569747 -122.294022 183 1537ft 93kts
24-Aug-20 20:25 40.544481 -122.294658 181 1016ft 90kts
24-Aug-20 20:26 40.519555 -122.294766 182 518ft 83kts
24-Aug-20 20:27 40.508183 -122.295629 300 505ft 17kts
24-Aug-20 20:28 40.508428 -122.296122 299 505ft 5kts

Navigation Log

Ident Type
Flight plan parsing failed, navigation log unavailable